My Meet Scores
Sasha Costello, St. Charles Gymnastics Academy - MyMeetScores.com
Top100 | Top Teams | Upcoming Meets | Completed Meets | Latest | Add Scores | Help| Support | Bookmark and Share

Sasha Costello, St. Charles Gymnastics Academy
Personal Bests
LevelVault BarsBeamFloorAA
39.2009.200 9.4509.05036.625
49.0009.700 9.6759.45037.075
68.6509.225 9.5259.70036.700
78.9259.350 9.7259.47537.325
Meet Scores
Date Meet Team Session Level Division Vault Bars Beam Floor AA
2020-02-28 MEGA Spring Invite 2020 St. Charles Gymnastics Academy 3 7 Junior A 8.600 18 8.775 18 9.625 3 9.050 12 36.050 13
2020-02-21 Great Western Invitational - Women's St. Charles Gymnastics Academy 03 7 Buckaroo 8.850 9 9.275 13 9.725 2 9.475 5T 37.325 5
2020-02-07 SCGA Classic St. Charles Gymnastics Academy 2 7 child 8.925 3 9.325 1 8.600 5 9.350 3 36.200 2
2020-01-24 Sand Dollar Invitational 2020 St. Charles Gymnastics Academy B10 7 Jr A 8.700 10 9.225 4 9.525 1 8.650 15 36.100 10
2020-01-10 St Jude Benefit Meet St. Charles Gymnastics Academy 5B 7 Jr A 8.125 14 9.225 6T 8.200 13 9.300 7T 34.850 9
2019-12-13 2019 St Nick St. Charles Gymnastics Academy 2 7 JrA 8.850 7T 9.350 3 8.700 8 9.400 1 36.300 3
2019-03-15 Illinois State Championship Level 6,9,10 St. Charles Gymnastics Academy 12 6 Jr B 8.525 20 9.225 13 9.250 12T 9.700 3 36.700 13
2019-02-15 Women's Midwest Open St. Charles Gymnastics Academy 01 6 Junior A 7.950 12 8.650 13 9.525 1 9.625 1 35.750 10
2019-01-25 Metroplex Challenge St. Charles Gymnastics Academy R05 6 Jr A 8.650 17T 9.200 7T 8.825 15T 9.400 6T 36.075 9
2019-01-11 St Jude Benefit Meet St. Charles Gymnastics Academy 2B 6 Jr A 8.500 4 8.450 10 8.575 11 9.500 5 35.025 11
2018-12-07 St. Nick Invite 2018 St. Charles Gymnastics Academy 2 6 JrA 7.850 11 8.500 8 9.175 5 9.600 1 35.125 8
2018-03-08 Level 4 & 5 State St. Charles Gymnastics Academy All 4 Ch F 8.800 16 8.300 23T 9.425 7T 9.300 4T 35.825 15
2018-02-23 Kinetic Classic St. Charles Gymnastics Academy 7 4 Younger 8.725 18 9.000 31T 9.325 18T 8.925 51T 35.975 23
2018-02-16 Big Classic St. Charles Gymnastics Academy 7B 4 Child B 8.400 8T 9.700 1 9.525 2 9.450 4 37.075 4
2018-01-26 King Arthur Invitational St. Charles Gymnastics Academy 6 4 JR B 9.000 6 8.850 4T 9.675 1 9.000 2T 36.525 3
2018-01-12 St Jude Benefit Meet St. Charles Gymnastics Academy 2A 4 JrB 8.450 7 9.250 3 9.300 4 9.000 3T 36.000 3
2017-12-14 2017 Women's Hawaiian Pineapple Classic St. Charles Gymnastics Academy 6A 4 Age9 8.400 8 8.800 5 9.200 4 8.950 5 35.350 4
2017-12-01 Ultimate Wish Classic St. Charles Gymnastics Academy 6 4 Jr B 8.400 2T 8.550 4 8.800 7T 8.650 4 34.400 4
2017-11-17 SCGA Classic St. Charles Gymnastics Academy 2 4 JrA 9.000 5 8.375 7 8.775 8 8.725 10 34.875 7
2017-02-24 Kinetic Classic St. Charles Gymnastics Academy 4,5,6,7 3 All Ages 9.075 56T 9.200 30T 9.300 17* 9.050 40T 36.625 23T
2017-01-20 2017 Bravo Classic St. Charles Gymnastics Academy 12B 3 8yrs 9.200 9 8.850 8 9.450 3 8.575 11 36.075 7
2016-12-15 2016 Hawaiian Pineapple Sanction St. Charles Gymnastics Academy 5B 3 Age 8 8.875 17 8.200 14 9.175 3 8.675 17 34.925 12
Get your scores on
a t-shirt, pin, or hoodie

www.lazysuits.com